Time;durP1;ratioP1;P1;durP2;ratioP2;P2;SDS_P1;SDS_P2;PMS_P1;PMS_P2;Temp;Humidity;BMP_temperature;BMP_pressure;BME280_temperature;BME280_humidity;BME280_pressure;Samples;Min_cycle;Max_cycle;Signal;HPM_P1;HPM_P2
2022/08/12 00:43:58;;;;;;;14.77;12.70;;;;;;;22.17;100.00;99225.41;4973394;28;20238;-83
2022/08/12 00:46:43;;;;;;;15.47;13.20;;;;;;;22.11;100.00;99197.09;4973030;28;20175;-82
2022/08/12 00:49:09;;;;;;;14.37;12.80;;;;;;;20.75;100.00;98986.44;4972853;28;20306;-83
2022/08/12 00:54:22;;;;;;;15.57;13.33;;;;;;;21.71;100.00;99163.75;4973396;28;20210;-83
2022/08/12 00:56:49;;;;;;;17.57;14.00;;;;;;;22.21;100.00;99220.22;4972966;28;20180;-82
2022/08/12 00:59:15;;;;;;;17.00;14.03;;;;;;;22.17;100.00;99217.66;4973219;28;20167;-82
2022/08/12 01:01:45;;;;;;;17.47;14.67;;;;;;;22.02;100.00;99210.88;4972662;28;20152;-82
2022/08/12 01:12:25;;;;;;;18.00;14.70;;;;;;;21.49;100.00;99128.63;4972362;28;20602;-81
2022/08/12 01:14:53;;;;;;;20.33;15.67;;;;;;;20.68;100.00;99010.50;4971172;28;20180;-83
2022/08/12 01:17:21;;;;;;;18.47;15.67;;;;;;;21.75;100.00;99185.22;4972754;28;20184;-83
2022/08/12 01:19:49;;;;;;;20.67;15.83;;;;;;;21.87;100.00;99226.41;4972046;28;20156;-84
2022/08/12 01:22:24;;;;;;;20.80;17.47;;;;;;;20.13;100.00;98930.91;4972786;28;20647;-83
2022/08/12 01:24:55;;;;;;;22.50;17.50;;;;;;;21.81;100.00;99220.41;4973279;28;20215;-83
2022/08/12 01:27:22;;;;;;;25.00;18.57;;;;;;;21.59;100.00;99223.06;4973282;28;20160;-83
2022/08/12 01:29:50;;;;;;;22.30;17.70;;;;;;;21.15;100.00;99139.94;4972698;28;20164;-82
2022/08/12 01:32:18;;;;;;;23.40;18.97;;;;;;;21.43;100.00;99175.03;4972355;28;20196;-82
2022/08/12 01:35:14;;;;;;;23.80;19.40;;;;;;;21.77;100.00;99220.44;4972731;28;20187;-81
2022/08/12 01:38:03;;;;;;;27.17;21.37;;;;;;;21.73;100.00;99210.13;4894590;29;20210;-84
2022/08/12 01:40:31;;;;;;;29.77;21.60;;;;;;;20.99;100.00;99076.44;4894606;29;20198;-81
2022/08/12 01:43:01;;;;;;;29.07;22.00;;;;;;;20.38;100.00;98971.13;4894540;29;20224;-80
2022/08/12 01:45:29;;;;;;;29.47;23.17;;;;;;;21.84;100.00;99197.22;4894354;29;20710;-82
2022/08/12 01:48:23;;;;;;;30.87;23.10;;;;;;;21.74;100.00;99197.25;4895095;29;20214;-81
2022/08/12 01:51:18;;;;;;;32.20;23.10;;;;;;;21.68;100.00;99189.53;4893552;29;20624;-82
2022/08/12 01:53:50;;;;;;;28.70;22.63;;;;;;;21.78;100.00;99200.66;4893861;29;20360;-82
2022/08/12 01:56:17;;;;;;;25.67;21.17;;;;;;;21.49;100.00;99156.09;4893721;29;20205;-82
2022/08/12 02:01:35;;;;;;;27.53;21.13;;;;;;;21.74;100.00;99194.66;4893844;29;20779;-82
2022/08/12 02:13:21;;;;;;;26.33;19.93;;;;;;;21.38;100.00;99179.34;4904127;28;20206;-83
2022/08/12 02:16:12;;;;;;;30.53;20.30;;;;;;;19.86;100.00;98936.06;4971990;28;20180;-83
2022/08/12 02:19:09;;;;;;;28.33;21.47;;;;;;;19.95;100.00;98941.19;4972262;28;20168;-83
2022/08/12 02:21:37;;;;;;;28.37;21.07;;;;;;;21.32;100.00;99181.06;4972030;28;20640;-83
2022/08/12 02:24:05;;;;;;;28.80;21.57;;;;;;;20.55;100.00;99064.53;4972005;28;20200;-83
2022/08/12 02:26:33;;;;;;;28.50;21.33;;;;;;;20.59;100.00;99070.53;4971034;28;20615;-83
2022/08/12 02:29:00;;;;;;;28.77;22.63;;;;;;;21.26;100.00;99179.34;4971997;28;20208;-83
2022/08/12 02:31:28;;;;;;;27.87;21.93;;;;;;;21.21;100.00;99186.25;4973640;28;20172;-83
2022/08/12 02:33:54;;;;;;;32.17;22.63;;;;;;;21.17;100.00;99184.56;4975489;28;20176;-83
2022/08/12 02:36:20;;;;;;;31.17;23.23;;;;;;;21.09;100.00;99186.28;4974232;28;20327;-83
2022/08/12 02:38:48;;;;;;;31.03;23.10;;;;;;;19.95;100.00;98974.59;4975320;28;20286;-83
2022/08/12 02:41:17;;;;;;;28.63;22.67;;;;;;;21.17;100.00;99197.44;4975366;28;20636;-83
2022/08/12 02:43:52;;;;;;;27.33;22.10;;;;;;;21.12;100.00;99192.25;4973892;28;20199;-84
2022/08/12 02:46:26;;;;;;;32.87;23.43;;;;;;;20.91;100.00;99192.28;4975438;28;20272;-83
2022/08/12 02:48:56;;;;;;;29.80;22.53;;;;;;;20.31;100.00;99100.56;4975018;28;20356;-83
2022/08/12 02:51:28;;;;;;;28.43;22.20;;;;;;;20.52;100.00;99135.69;4974030;28;20180;-83
2022/08/12 02:53:57;;;;;;;28.80;22.43;;;;;;;19.96;100.00;99020.00;4975055;28;20176;-84
2022/08/12 02:56:26;;;;;;;28.67;21.23;;;;;;;20.79;100.00;99176.84;4975054;28;20611;-83
2022/08/12 02:58:53;;;;;;;28.63;21.57;;;;;;;20.84;100.00;99207.72;4974974;28;20323;-83
2022/08/12 03:01:23;;;;;;;26.67;19.87;;;;;;;19.54;100.00;98996.84;4975227;28;20168;-84
2022/08/12 03:03:54;;;;;;;27.20;20.40;;;;;;;20.37;100.00;99130.56;4974827;28;20160;-83
2022/08/12 03:06:22;;;;;;;24.53;19.67;;;;;;;20.85;100.00;99206.88;4974751;28;20620;-83
2022/08/12 03:08:52;;;;;;;23.70;18.77;;;;;;;19.56;100.00;98979.75;4974770;28;20601;-83
2022/08/12 03:11:24;;;;;;;24.33;18.90;;;;;;;20.70;100.00;99171.72;4974597;28;20160;-83
2022/08/12 03:13:59;;;;;;;23.20;19.17;;;;;;;19.99;100.00;99035.41;4974904;28;20227;-83
2022/08/12 03:16:28;;;;;;;26.03;19.10;;;;;;;20.78;100.00;99158.84;4974657;28;20174;-83
2022/08/12 03:18:55;;;;;;;23.80;18.63;;;;;;;20.64;100.00;99145.13;4973278;28;20180;-83
2022/08/12 03:21:20;;;;;;;22.77;18.33;;;;;;;19.54;100.00;98999.41;4974503;28;20596;-83
2022/08/12 03:23:47;;;;;;;22.27;17.40;;;;;;;19.69;100.00;99041.38;4974614;28;20179;-83
2022/08/12 03:26:13;;;;;;;23.10;16.77;;;;;;;20.58;100.00;99167.41;4974446;28;20159;-83
2022/08/12 03:28:49;;;;;;;18.50;15.40;;;;;;;20.18;100.00;99085.97;4974403;28;20214;-83
2022/08/12 03:31:17;;;;;;;19.63;15.33;;;;;;;21.00;100.00;99210.28;4974316;28;20243;-83
2022/08/12 03:33:44;;;;;;;19.47;15.63;;;;;;;20.70;100.00;99129.69;4974604;28;20160;-84
2022/08/12 03:36:16;;;;;;;19.33;15.67;;;;;;;20.71;100.00;99198.31;4974717;28;20156;-83
2022/08/12 03:38:49;;;;;;;20.90;15.50;;;;;;;20.75;100.00;99210.28;4972907;28;20243;-83
2022/08/12 03:41:34;;;;;;;22.03;15.77;;;;;;;18.88;100.00;98905.97;4974465;28;20156;-83
2022/08/12 04:00:44;;;;;;;15.43;13.03;;;;;;;18.76;100.00;98845.25;4988633;28;20175;-81
2022/08/12 04:03:51;;;;;;;16.27;13.43;;;;;;;19.82;100.00;98978.03;4975482;28;20700;-82
2022/08/12 04:05:56;;;;;;;17.27;13.37;;;;;;;21.41;100.00;99225.69;4994448;28;20259;-83
2022/08/12 04:08:25;;;;;;;20.37;14.00;;;;;;;21.45;100.00;99224.81;5001109;28;20187;-83
2022/08/12 04:13:37;;;;;;;16.30;13.50;;;;;;;21.22;100.00;99169.06;4980579;28;20265;-81
2022/08/12 04:16:05;;;;;;;17.43;13.03;;;;;;;21.42;100.00;99223.97;4971055;28;20622;-86
2022/08/12 04:18:32;;;;;;;16.90;13.13;;;;;;;20.85;100.00;99119.38;4972418;28;20195;-81
2022/08/12 04:20:57;;;;;;;18.77;14.37;;;;;;;21.54;100.00;99227.38;4971691;28;20192;-81
2022/08/12 04:23:24;;;;;;;20.30;14.47;;;;;;;21.56;100.00;99219.66;4972622;28;20196;-82
2022/08/12 04:25:49;;;;;;;18.13;14.03;;;;;;;21.54;100.00;99226.50;4972539;28;20184;-84
2022/08/12 04:28:15;;;;;;;18.40;14.93;;;;;;;18.62;100.00;98717.91;4972458;28;20188;-81
2022/08/12 04:30:42;;;;;;;20.33;14.93;;;;;;;21.35;100.00;99230.84;4973101;28;20653;-80
2022/08/12 04:33:11;;;;;;;18.90;15.30;;;;;;;20.89;100.00;99137.38;4969854;28;20750;-81
2022/08/12 04:35:37;;;;;;;19.70;15.80;;;;;;;20.89;100.00;99188.00;4969968;28;20180;-81
2022/08/12 04:38:04;;;;;;;19.20;15.77;;;;;;;19.10;100.00;98935.97;4972141;28;20184;-81
2022/08/12 04:40:32;;;;;;;18.63;15.40;;;;;;;21.25;100.00;99239.47;4972189;28;20187;-82
2022/08/12 04:43:01;;;;;;;23.43;15.60;;;;;;;19.01;100.00;98851.28;4969057;28;20204;-83
2022/08/12 04:45:28;;;;;;;21.97;16.63;;;;;;;21.21;100.00;99240.31;4968369;28;21088;-85
2022/08/12 04:47:53;;;;;;;22.97;15.97;;;;;;;18.88;100.00;98908.56;4952987;29;20196;-85
2022/08/12 04:50:19;;;;;;;21.60;16.80;;;;;;;19.71;100.00;99077.34;4952786;28;20224;-82
2022/08/12 04:52:44;;;;;;;24.33;17.50;;;;;;;20.74;100.00;99239.47;4952860;28;20208;-81
2022/08/12 04:55:11;;;;;;;22.53;17.40;;;;;;;20.58;100.00;99190.56;4970270;28;20184;-81
2022/08/12 04:57:37;;;;;;;28.27;20.33;;;;;;;19.52;100.00;99031.94;4986217;28;20183;-81
2022/08/12 05:00:12;;;;;;;26.27;20.63;;;;;;;20.54;100.00;99211.16;4990054;28;20184;-81
2022/08/12 05:02:38;;;;;;;29.10;21.37;;;;;;;20.78;100.00;99234.31;4965557;28;20306;-81
2022/08/12 05:05:04;;;;;;;27.00;20.77;;;;;;;20.96;100.00;99221.44;4969666;28;20287;-81
2022/08/12 05:07:30;;;;;;;27.73;21.07;;;;;;;21.10;100.00;99224.88;4970427;28;20262;-81
2022/08/12 05:09:56;;;;;;;27.30;20.83;;;;;;;21.34;100.00;99249.75;4967662;28;20187;-81
2022/08/12 05:12:22;;;;;;;24.33;20.20;;;;;;;21.39;100.00;99211.09;4970039;28;20644;-81
2022/08/12 05:14:49;;;;;;;28.80;21.13;;;;;;;21.58;100.00;99239.38;4968687;28;20286;-81
2022/08/12 05:17:14;;;;;;;30.17;22.47;;;;;;;21.70;100.00;99239.34;4971224;28;20258;-81
2022/08/12 05:19:41;;;;;;;26.73;22.43;;;;;;;20.54;100.00;99021.69;4967517;28;20184;-82
2022/08/12 05:22:06;;;;;;;30.63;23.87;;;;;;;22.20;100.00;99251.16;4969174;28;20200;-82
2022/08/12 05:24:32;;;;;;;30.43;23.93;;;;;;;21.40;100.00;99141.53;4986172;28;20198;-81
2022/08/12 05:26:57;;;;;;;33.33;25.83;;;;;;;21.77;100.00;99220.44;4970692;28;20905;-80
2022/08/12 05:29:23;;;;;;;34.30;25.40;;;;;;;22.14;100.00;99244.31;4970762;28;20211;-82
2022/08/12 05:31:51;;;;;;;35.30;26.37;;;;;;;22.20;100.00;99257.19;4970481;28;20204;-81
2022/08/12 05:34:16;;;;;;;31.37;25.07;;;;;;;22.44;100.00;99266.53;4970575;28;20278;-80
2022/08/12 05:36:44;;;;;;;31.60;24.80;;;;;;;22.67;100.00;99269.84;4969986;28;20259;-81
2022/08/12 05:39:10;;;;;;;34.17;27.07;;;;;;;22.72;100.00;99268.09;4969756;28;20187;-81
2022/08/12 05:41:36;;;;;;;34.40;25.93;;;;;;;22.68;100.00;99201.88;4968344;28;20194;-81
2022/08/12 05:44:06;;;;;;;32.30;23.97;;;;;;;23.26;100.00;99276.25;4969266;28;20175;-80
2022/08/12 05:46:33;;;;;;;30.57;24.20;;;;;;;22.94;100.00;99263.59;4968837;28;20266;-81
2022/08/12 05:48:59;;;;;;;30.17;23.63;;;;;;;22.66;100.00;99239.72;4989215;28;20249;-81
2022/08/12 05:51:26;;;;;;;30.80;23.03;;;;;;;22.01;100.00;99100.03;4989884;28;20253;-82
2022/08/12 05:53:53;;;;;;;27.47;22.53;;;;;;;23.19;100.00;99275.44;4980648;28;20207;-82
2022/08/12 05:56:25;;;;;;;28.53;23.70;;;;;;;23.00;100.00;99266.13;4968082;28;20191;-80
2022/08/12 05:58:52;;;;;;;26.93;20.57;;;;;;;23.25;100.00;99265.06;4969978;28;20176;-82
2022/08/12 06:01:19;;;;;;;25.77;19.73;;;;;;;23.06;100.00;99208.41;4969660;28;20172;-81
2022/08/12 06:03:45;;;;;;;23.37;19.27;;;;;;;22.37;100.00;99122.97;4949173;28;20257;-80
2022/08/12 06:06:10;;;;;;;17.60;14.60;;;;;;;23.12;98.66;99260.88;4967585;28;20192;-81
2022/08/12 06:08:36;;;;;;;17.00;13.77;;;;;;;23.27;96.87;99231.44;4973343;28;20244;-81
2022/08/12 06:11:03;;;;;;;18.23;13.70;;;;;;;23.41;96.13;99253.75;4972478;28;20192;-81
2022/08/12 06:13:30;;;;;;;16.90;13.67;;;;;;;23.41;94.65;99183.09;4972341;28;20211;-81
2022/08/12 06:15:56;;;;;;;17.07;13.77;;;;;;;24.16;93.91;99258.06;4973071;28;20584;-80
2022/08/12 06:18:21;;;;;;;17.03;14.20;;;;;;;23.91;94.46;99253.16;4972926;28;20180;-80
2022/08/12 06:20:52;;;;;;;18.33;14.80;;;;;;;23.90;93.66;99256.63;4973018;28;20279;-81
2022/08/12 06:23:17;;;;;;;18.30;15.20;;;;;;;23.09;93.04;99123.16;4972230;28;20192;-82
2022/08/12 06:25:45;;;;;;;19.10;15.40;;;;;;;23.51;97.44;99251.06;4973384;28;20190;-81
2022/08/12 06:28:16;;;;;;;21.03;16.30;;;;;;;22.80;98.83;99114.00;4972927;28;20795;-81
2022/08/12 06:30:43;;;;;;;19.63;15.57;;;;;;;23.51;95.06;99142.53;4973246;28;20180;-81
2022/08/12 06:33:09;;;;;;;20.47;15.10;;;;;;;24.68;92.77;99259.03;4972960;28;20206;-83
2022/08/12 06:35:35;;;;;;;20.33;14.53;;;;;;;25.10;89.71;99263.56;4973166;28;20192;-82
2022/08/12 06:38:02;;;;;;;20.30;14.23;;;;;;;24.68;90.53;99269.38;4972982;28;20191;-81
2022/08/12 06:43:12;;;;;;;17.97;12.90;;;;;;;25.35;88.11;99263.13;4972720;28;20346;-82
2022/08/12 06:45:43;;;;;;;14.83;12.27;;;;;;;25.08;86.53;99216.06;4973085;28;20208;-82
2022/08/12 06:48:10;;;;;;;13.53;10.70;;;;;;;25.60;82.63;99246.28;4972729;28;20883;-81
2022/08/12 06:50:36;;;;;;;11.63;10.43;;;;;;;25.80;81.71;99241.53;4972447;28;20571;-82
2022/08/12 06:53:03;;;;;;;14.37;11.10;;;;;;;26.03;81.22;99252.31;4972324;28;20204;-81
2022/08/12 06:55:29;;;;;;;12.50;11.20;;;;;;;25.32;83.27;99261.47;4972965;28;20187;-81
2022/08/12 06:58:00;;;;;;;13.90;11.57;;;;;;;25.80;82.45;99260.56;4972266;28;20184;-82
2022/08/12 07:00:29;;;;;;;12.13;10.23;;;;;;;25.69;79.65;99202.00;4972454;28;20600;-81
2022/08/12 07:02:54;;;;;;;12.13;9.47;;;;;;;26.30;78.49;99251.75;4961351;28;20279;-82
2022/08/12 07:05:24;;;;;;;10.73;9.63;;;;;;;25.90;78.41;99248.25;4985872;28;20576;-82
2022/08/12 07:08:07;;;;;;;15.23;11.83;;;;;;;25.85;81.66;99250.06;4972476;28;20191;-82
2022/08/12 07:10:38;;;;;;;16.53;11.30;;;;;;;25.48;81.15;99231.81;4972761;28;20188;-82
2022/08/12 07:13:03;;;;;;;14.80;11.33;;;;;;;25.36;83.36;99241.50;4972413;28;20266;-82
2022/08/12 07:15:29;;;;;;;11.90;10.70;;;;;;;25.78;81.63;99249.38;4971922;28;20192;-81
2022/08/12 07:20:49;;;;;;;11.53;9.57;;;;;;;26.19;76.27;99222.56;4950849;29;20292;-82
2022/08/12 07:23:16;;;;;;;11.23;9.13;;;;;;;26.05;75.33;99224.56;4934249;29;20359;-81
2022/08/12 07:25:42;;;;;;;11.57;8.18;;;;;;;25.58;72.49;99038.00;4935129;29;20667;-82
2022/08/12 07:28:14;;;;;;;8.88;8.00;;;;;;;26.01;68.37;99022.31;4950415;29;20651;-82
2022/08/12 07:30:41;;;;;;;9.65;8.68;;;;;;;27.45;71.18;99242.91;4950380;29;20204;-82
2022/08/12 07:33:08;;;;;;;14.80;9.88;;;;;;;27.39;71.03;99230.03;4950920;29;20253;-82
2022/08/12 07:35:44;;;;;;;10.75;9.65;;;;;;;27.60;71.13;99220.81;4931917;29;20223;-82
2022/08/12 07:38:37;;;;;;;13.75;10.32;;;;;;;28.09;70.40;99235.03;4928337;29;21054;-83
2022/08/12 07:41:12;;;;;;;11.90;10.23;;;;;;;28.04;72.05;99230.84;4931677;29;20736;-83
2022/08/12 07:43:41;;;;;;;11.57;10.18;;;;;;;27.63;71.47;99192.13;4931464;29;20200;-82
2022/08/12 07:46:09;;;;;;;12.75;9.90;;;;;;;27.91;71.18;99224.25;4931713;29;20231;-83
2022/08/12 07:48:48;;;;;;;13.30;10.50;;;;;;;28.09;70.61;99215.94;4931834;29;20218;-82
2022/08/12 07:51:15;;;;;;;13.15;10.55;;;;;;;28.31;70.12;99227.41;4934248;29;20199;-82
2022/08/12 07:53:41;;;;;;;11.93;10.63;;;;;;;28.40;69.86;99227.13;4920316;29;20247;-84
2022/08/12 07:56:09;;;;;;;11.70;10.50;;;;;;;27.87;69.56;99194.03;4944641;29;20679;-83
2022/08/12 07:58:38;;;;;;;14.18;10.63;;;;;;;28.15;69.32;99222.72;4979689;28;20194;-82
2022/08/12 08:01:10;;;;;;;11.18;9.95;;;;;;;28.31;68.89;99209.19;4972382;28;20234;-84
2022/08/12 08:03:36;;;;;;;11.50;10.15;;;;;;;28.80;67.18;99212.84;4962344;28;20240;-83
2022/08/12 08:06:03;;;;;;;12.75;10.48;;;;;;;28.60;66.91;99201.28;4971873;28;20183;-83
2022/08/12 08:08:28;;;;;;;11.63;10.35;;;;;;;28.87;67.06;99230.00;4972519;28;20274;-83
2022/08/12 08:13:44;;;;;;;11.70;9.90;;;;;;;27.65;70.84;99211.13;4972605;28;20223;-87
2022/08/12 08:16:11;;;;;;;13.02;10.00;;;;;;;26.73;69.32;99066.31;4971808;28;20197;-85
2022/08/12 08:18:36;;;;;;;11.82;9.35;;;;;;;26.95;67.53;99119.44;4973262;28;20191;-86
2022/08/12 08:21:03;;;;;;;10.18;9.15;;;;;;;27.17;67.07;99046.91;4971387;28;20193;-86
2022/08/12 08:26:19;;;;;;;11.15;9.20;;;;;;;27.04;65.62;98963.28;4973397;28;20196;-85
2022/08/12 08:28:45;;;;;;;11.60;9.52;;;;;;;26.66;65.66;98984.28;4967160;28;20207;-86
2022/08/12 08:31:13;;;;;;;11.50;10.00;;;;;;;27.12;65.51;99080.84;4972511;28;20192;-84
2022/08/12 08:33:40;;;;;;;11.50;9.68;;;;;;;27.92;63.18;99164.34;4964986;28;20210;-84
2022/08/12 08:36:06;;;;;;;10.23;8.80;;;;;;;28.23;61.03;99094.00;4992663;28;20173;-86
2022/08/12 08:38:31;;;;;;;11.38;8.45;;;;;;;27.27;59.77;98877.66;4989345;28;21026;-86
2022/08/12 08:43:41;;;;;;;10.95;9.15;;;;;;;28.48;58.88;99079.28;4973752;28;20212;-86
2022/08/12 08:46:06;;;;;;;9.77;8.10;;;;;;;29.64;57.17;99209.06;4973593;28;20651;-88
2022/08/12 08:48:33;;;;;;;11.98;9.73;;;;;;;27.78;58.40;98887.25;4956289;28;20981;-85
2022/08/12 08:51:00;;;;;;;10.63;9.13;;;;;;;29.86;57.95;99196.09;4974169;28;20624;-87
2022/08/12 08:53:25;;;;;;;10.70;8.88;;;;;;;28.53;57.41;98952.31;4974769;28;20216;-87
2022/08/12 08:55:52;;;;;;;12.30;9.25;;;;;;;28.99;58.21;99028.84;4974288;28;20194;-87
2022/08/12 08:58:20;;;;;;;11.20;8.90;;;;;;;29.53;56.65;99099.84;4975600;28;20219;-87
2022/08/12 09:00:49;;;;;;;10.45;8.30;;;;;;;29.48;54.63;99031.34;4971896;28;20184;-86
2022/08/12 09:03:16;;;;;;;10.80;8.45;;;;;;;30.22;54.77;99179.84;4963995;28;20235;-85
2022/08/12 09:05:42;;;;;;;9.70;8.38;;;;;;;28.54;56.42;99003.50;4970748;28;20240;-86
2022/08/12 09:08:10;;;;;;;10.65;9.55;;;;;;;27.96;56.86;98933.50;4972011;28;20590;-86
2022/08/12 09:10:37;;;;;;;11.55;8.25;;;;;;;29.99;55.22;99129.44;4969911;28;20640;-86
2022/08/12 09:15:48;;;;;;;10.73;7.70;;;;;;;29.88;54.13;99082.88;4973139;28;20302;-85
2022/08/12 09:18:17;;;;;;;12.35;7.80;;;;;;;29.95;53.29;99065.19;4973301;28;20604;-86
2022/08/12 09:20:43;;;;;;;9.82;7.30;;;;;;;30.26;53.45;99170.13;4972963;28;20189;-85
2022/08/12 09:23:11;;;;;;;7.85;7.05;;;;;;;29.03;52.59;98984.38;4987059;28;20181;-85
2022/08/12 09:25:38;;;;;;;11.50;8.30;;;;;;;28.87;53.79;99056.19;4990161;28;20175;-86
2022/08/12 09:28:07;;;;;;;9.82;7.00;;;;;;;28.03;51.60;98834.34;4971542;28;20192;-86
2022/08/12 09:30:33;;;;;;;8.15;6.55;;;;;;;28.66;50.16;98820.72;4982866;28;20183;-87
2022/08/12 09:32:59;;;;;;;9.30;7.13;;;;;;;29.34;50.40;98936.28;4973265;28;20603;-84
2022/08/12 09:35:32;;;;;;;7.80;6.85;;;;;;;30.27;49.04;99026.38;4955566;28;20192;-86
2022/08/12 09:38:01;;;;;;;7.57;6.00;;;;;;;30.70;49.30;99085.56;4958521;28;20632;-85
2022/08/12 09:40:28;;;;;;;9.02;6.82;;;;;;;29.79;49.50;98870.03;4977127;28;20321;-84
2022/08/12 09:45:40;;;;;;;9.27;6.88;;;;;;;29.70;50.48;99006.09;4975504;28;20202;-86
2022/08/12 09:48:07;;;;;;;8.20;7.35;;;;;;;29.55;50.76;98995.44;4974784;28;20170;-87
2022/08/12 09:50:33;;;;;;;10.10;7.25;;;;;;;28.80;51.69;98958.31;4975653;28;20743;-86
2022/08/12 09:53:07;;;;;;;12.13;7.28;;;;;;;30.36;51.67;99155.78;4974730;28;20259;-86
2022/08/12 09:55:34;;;;;;;7.78;6.97;;;;;;;29.55;50.25;99038.03;4975884;28;20226;-85
2022/08/12 09:58:00;;;;;;;8.15;6.80;;;;;;;28.01;49.01;98720.75;4976943;28;20183;-84
2022/08/12 10:00:26;;;;;;;7.88;6.57;;;;;;;29.37;49.53;98877.00;4976965;28;20551;-86
2022/08/12 10:03:00;;;;;;;8.93;7.25;;;;;;;29.43;49.42;99022.84;4968246;28;20190;-87
2022/08/12 10:05:26;;;;;;;8.32;7.50;;;;;;;28.62;50.20;98824.34;4977149;28;20659;-87
2022/08/12 10:07:51;;;;;;;6.57;5.88;;;;;;;30.03;49.85;99103.13;4973813;28;20879;-87
2022/08/12 10:10:18;;;;;;;7.88;5.80;;;;;;;29.34;49.81;98960.59;4975572;28;20193;-87
2022/08/12 10:15:33;;;;;;;8.07;5.90;;;;;;;31.38;46.66;99141.88;4976464;28;20856;-86
2022/08/12 10:18:01;;;;;;;9.00;5.95;;;;;;;30.59;45.96;98980.63;4994464;28;20301;-86
2022/08/12 10:20:26;;;;;;;11.45;5.90;;;;;;;31.12;46.49;98956.47;4981962;28;20235;-87
2022/08/12 10:22:59;;;;;;;8.38;5.95;;;;;;;31.75;45.44;99092.19;4990088;28;20286;-86
2022/08/12 10:30:52;;;;;;;8.13;5.90;;;;;;;30.20;43.26;98708.09;4974788;28;20630;-85
2022/08/12 10:33:18;;;;;;;8.57;5.70;;;;;;;31.79;43.53;99009.94;4974279;28;20314;-87
2022/08/12 10:35:44;;;;;;;6.65;5.22;;;;;;;32.08;41.60;98929.97;4980430;28;20191;-89
2022/08/12 10:38:10;;;;;;;7.70;5.50;;;;;;;33.00;41.08;99079.81;4978719;28;20907;-90
2022/08/12 10:43:39;;;;;;;6.60;5.70;;;;;;;32.79;41.61;99059.97;4978992;28;20191;-87
2022/08/12 10:43:43;;;;;;;8.95;5.63;;;;;;;32.45;42.29;99091.41;4974735;28;20592;-88
2022/08/12 10:46:16;;;;;;;8.10;5.82;;;;;;;31.03;42.15;98883.66;4973208;28;20184;-87
2022/08/12 10:48:50;;;;;;;6.20;5.60;;;;;;;31.30;42.07;98869.25;4973678;28;20232;-88
2022/08/12 10:51:19;;;;;;;6.75;6.00;;;;;;;33.04;41.08;99083.13;4972453;28;20214;-88
2022/08/12 10:53:55;;;;;;;7.65;6.10;;;;;;;31.66;40.85;98879.72;4974752;28;20207;-92
2022/08/12 10:56:21;;;;;;;6.72;5.30;;;;;;;29.98;40.83;98623.84;4977357;28;20405;-89
2022/08/12 10:58:47;;;;;;;8.85;5.60;;;;;;;33.22;40.35;99090.06;4975646;28;20188;-88
2022/08/12 11:01:14;;;;;;;7.53;5.97;;;;;;;32.02;38.71;98815.88;4973592;28;20180;-90
2022/08/12 11:03:40;;;;;;;9.57;5.63;;;;;;;33.04;37.28;98963.31;4960258;28;20602;-86
2022/08/12 11:06:07;;;;;;;6.55;5.30;;;;;;;33.41;37.55;98988.38;4957637;28;20183;-85
2022/08/12 11:08:36;;;;;;;7.03;5.30;;;;;;;32.86;36.03;98830.50;4958591;28;20251;-87
2022/08/12 11:11:07;;;;;;;8.35;5.10;;;;;;;33.75;34.96;98882.31;4990936;28;20219;-86
2022/08/12 11:13:36;;;;;;;6.55;5.63;;;;;;;33.41;34.68;98961.28;4976500;28;20291;-86
2022/08/12 11:16:04;;;;;;;6.13;5.35;;;;;;;32.22;36.17;98842.78;4958678;28;20168;-85
2022/08/12 11:18:30;;;;;;;7.45;5.50;;;;;;;31.87;35.07;98758.16;4958182;28;20183;-87
2022/08/12 11:20:55;;;;;;;5.63;5.07;;;;;;;33.18;34.53;98968.66;4976132;28;20160;-85
2022/08/12 11:23:21;;;;;;;6.28;5.43;;;;;;;33.16;34.65;99049.25;4958086;28;20168;-85
2022/08/12 11:25:48;;;;;;;5.70;5.10;;;;;;;32.47;36.59;99043.22;4957911;28;20650;-87
2022/08/12 11:28:14;;;;;;;5.95;5.20;;;;;;;32.72;35.83;99045.47;4955015;28;20279;-86
2022/08/12 11:30:41;;;;;;;5.40;4.90;;;;;;;32.52;36.00;99043.00;4971600;28;20180;-84
2022/08/12 11:33:07;;;;;;;6.68;5.32;;;;;;;32.47;36.31;98982.09;4972418;28;20204;-84
2022/08/12 11:35:35;;;;;;;6.68;5.25;;;;;;;33.15;36.21;99017.84;4990205;28;20176;-86
2022/08/12 11:38:00;;;;;;;6.43;5.28;;;;;;;32.99;34.56;98944.31;4991106;28;20184;-88
2022/08/12 11:40:27;;;;;;;5.18;4.68;;;;;;;33.93;34.34;99044.09;4977759;28;20188;-84
2022/08/12 11:42:52;;;;;;;5.32;4.82;;;;;;;33.92;33.25;99029.28;4971122;28;20198;-84
2022/08/12 11:45:18;;;;;;;6.35;4.55;;;;;;;34.42;33.17;99040.34;4971244;28;20180;-86
2022/08/12 11:47:44;;;;;;;5.28;4.78;;;;;;;34.88;31.13;98974.47;4969105;28;20787;-85
2022/08/12 11:50:10;;;;;;;5.38;4.88;;;;;;;35.28;31.11;99043.91;4957830;28;20224;-84
2022/08/12 11:52:36;;;;;;;5.22;4.80;;;;;;;34.76;31.07;98964.69;4971000;28;20606;-84
2022/08/12 11:55:01;;;;;;;5.40;4.82;;;;;;;34.68;31.31;99009.06;4971085;28;20188;-85
2022/08/12 11:57:27;;;;;;;5.53;4.88;;;;;;;33.74;31.75;98844.69;4969864;28;20188;-85
2022/08/12 11:59:52;;;;;;;5.13;4.63;;;;;;;34.96;30.89;98991.50;4971250;28;20187;-86
2022/08/12 12:02:17;;;;;;;6.63;4.85;;;;;;;33.65;31.32;98803.19;4974690;28;20219;-85
2022/08/12 12:04:43;;;;;;;5.20;4.70;;;;;;;33.99;31.52;98883.47;4978241;28;20188;-87
2022/08/12 12:07:08;;;;;;;5.38;4.85;;;;;;;33.12;31.85;98753.00;4987939;28;20191;-86
2022/08/12 12:09:35;;;;;;;6.57;4.80;;;;;;;33.95;30.83;98813.66;4996192;28;20195;-85
2022/08/12 12:12:03;;;;;;;5.13;4.63;;;;;;;34.70;30.47;98855.44;4974794;28;20215;-84
2022/08/12 12:14:29;;;;;;;6.00;4.80;;;;;;;35.19;30.26;98794.44;4987695;28;20757;-86
2022/08/12 12:16:54;;;;;;;4.78;4.25;;;;;;;35.91;28.96;98879.06;4972583;28;20711;-84
2022/08/12 12:19:19;;;;;;;4.70;4.20;;;;;;;36.55;29.17;98988.97;4973730;28;20208;-84
2022/08/12 12:21:45;;;;;;;6.03;4.35;;;;;;;36.15;28.40;98924.06;4989229;28;20190;-83
2022/08/12 12:24:10;;;;;;;4.60;3.80;;;;;;;36.35;28.45;98984.16;4987428;28;20184;-83
2022/08/12 12:26:36;;;;;;;4.10;3.70;;;;;;;36.56;27.74;98950.25;4989989;28;20188;-83
2022/08/12 12:29:01;;;;;;;4.75;4.05;;;;;;;37.18;27.68;98981.00;4979542;28;20339;-83
2022/08/12 12:31:27;;;;;;;4.25;3.75;;;;;;;37.34;28.30;98980.72;4973025;28;20180;-83
2022/08/12 12:33:52;;;;;;;4.70;4.13;;;;;;;37.35;27.52;98924.31;4967961;28;20204;-86
2022/08/12 12:36:18;;;;;;;6.93;4.05;;;;;;;36.19;28.38;98871.94;4967787;28;20191;-84
2022/08/12 12:38:43;;;;;;;5.38;4.05;;;;;;;35.98;28.63;98953.31;4968331;28;20176;-84
2022/08/12 12:41:09;;;;;;;4.60;4.20;;;;;;;36.34;28.02;98911.28;4969769;28;20176;-84
2022/08/12 12:43:34;;;;;;;5.63;3.67;;;;;;;36.27;27.78;98806.31;4969380;28;20195;-85
2022/08/12 12:45:59;;;;;;;4.18;3.88;;;;;;;37.08;27.09;98855.88;4968167;28;20227;-84
2022/08/12 12:48:25;;;;;;;4.90;3.92;;;;;;;36.98;26.15;98741.31;4969029;28;20234;-83
2022/08/12 12:53:39;;;;;;;4.35;3.95;;;;;;;38.38;25.02;98853.84;4970922;28;20218;-85
2022/08/12 12:56:11;;;;;;;5.45;3.97;;;;;;;37.05;25.47;98762.84;4969978;28;20187;-84
2022/08/12 12:58:38;;;;;;;4.47;4.07;;;;;;;38.26;25.36;98777.25;4984616;28;20183;-84
2022/08/12 13:01:04;;;;;;;4.47;4.07;;;;;;;39.20;24.66;98915.31;4973513;28;20203;-86
2022/08/12 13:03:34;;;;;;;4.53;4.13;;;;;;;39.51;24.38;98962.16;4971636;28;20238;-85
2022/08/12 13:06:02;;;;;;;4.25;3.83;;;;;;;39.38;24.30;98919.09;4956564;28;20179;-85
2022/08/12 13:08:30;;;;;;;4.03;3.70;;;;;;;38.97;24.33;98926.88;4972820;28;20171;-85
2022/08/12 13:11:02;;;;;;;4.03;3.60;;;;;;;38.54;24.94;98914.34;4973277;28;20191;-85
2022/08/12 13:13:29;;;;;;;4.68;3.60;;;;;;;38.86;25.12;98883.56;4972816;28;20628;-86
2022/08/12 13:15:56;;;;;;;4.20;3.80;;;;;;;39.86;24.57;98946.84;4972916;28;20175;-87
2022/08/12 13:18:24;;;;;;;4.47;3.80;;;;;;;39.46;24.15;98951.09;4974384;28;20174;-84
2022/08/12 13:20:50;;;;;;;4.43;3.78;;;;;;;38.67;23.85;98697.19;4975357;28;20179;-85